createdAt,value
2018-08-06T00:00:24.992Z,19.44
2018-08-06T00:01:29.954Z,19.44
2018-08-06T00:02:35.467Z,19.34
2018-08-06T00:03:41.009Z,18.98
2018-08-06T00:04:45.742Z,18.65
2018-08-06T00:05:50.408Z,18.55
2018-08-06T00:06:55.049Z,18.38
2018-08-06T00:08:00.583Z,18.42
2018-08-06T00:09:06.756Z,18.56
2018-08-06T00:10:13.352Z,18.70
2018-08-06T00:11:19.020Z,18.71
2018-08-06T00:12:25.036Z,18.73
2018-08-06T00:13:29.706Z,18.78
2018-08-06T00:14:34.664Z,18.87
2018-08-06T00:15:40.415Z,18.90
2018-08-06T00:16:45.122Z,18.89
2018-08-06T00:17:49.763Z,18.95
2018-08-06T00:18:55.176Z,18.94
2018-08-06T00:20:00.695Z,19.03
2018-08-06T00:21:05.674Z,18.94
2018-08-06T00:22:13.823Z,18.65
2018-08-06T00:23:19.656Z,18.53
2018-08-06T00:24:25.677Z,18.54
2018-08-06T00:25:30.687Z,18.70
2018-08-06T00:26:35.388Z,18.82
2018-08-06T00:27:40.635Z,18.90
2018-08-06T00:28:45.313Z,18.84
2018-08-06T00:29:49.975Z,18.81
2018-08-06T00:30:54.671Z,18.88
2018-08-06T00:31:59.413Z,18.93
2018-08-06T00:33:04.138Z,18.99
2018-08-06T00:34:09.291Z,19.08
2018-08-06T00:35:14.306Z,19.12
2018-08-06T00:36:19.034Z,19.14
2018-08-06T00:37:24.439Z,19.05
2018-08-06T00:38:29.143Z,18.76
2018-08-06T00:39:33.853Z,18.59
2018-08-06T00:40:38.863Z,18.51
2018-08-06T00:41:43.574Z,18.33
2018-08-06T00:42:48.803Z,18.27
2018-08-06T00:43:53.568Z,18.35
2018-08-06T00:44:58.261Z,18.40
2018-08-06T00:46:03.037Z,18.34
2018-08-06T00:47:08.166Z,18.36
2018-08-06T00:48:13.263Z,18.36
2018-08-06T00:49:17.999Z,18.17
2018-08-06T00:50:22.715Z,18.12
2018-08-06T00:51:27.436Z,18.12
2018-08-06T00:52:32.163Z,18.12
2018-08-06T00:53:38.089Z,18.16
2018-08-06T00:54:42.775Z,18.26
2018-08-06T00:55:47.493Z,18.23
2018-08-06T00:56:52.210Z,17.85
2018-08-06T00:57:56.944Z,17.56
2018-08-06T00:59:01.672Z,17.44
2018-08-06T01:00:07.770Z,17.42
2018-08-06T01:01:13.002Z,17.37
2018-08-06T01:02:17.645Z,17.23
2018-08-06T01:03:22.373Z,17.44
2018-08-06T01:04:27.105Z,17.58
2018-08-06T01:05:31.819Z,17.77
2018-08-06T01:06:36.810Z,17.84
2018-08-06T01:07:41.912Z,17.79
2018-08-06T01:08:46.611Z,17.37
2018-08-06T01:09:51.463Z,17.28
2018-08-06T01:10:56.126Z,17.40
2018-08-06T01:12:00.793Z,17.39
2018-08-06T01:13:05.823Z,17.39
2018-08-06T01:14:10.499Z,17.55
2018-08-06T01:15:15.855Z,17.75
2018-08-06T01:16:21.821Z,17.91
2018-08-06T01:17:26.460Z,18.01
2018-08-06T01:18:31.140Z,18.02
2018-08-06T01:19:36.096Z,17.96
2018-08-06T01:20:40.736Z,17.81
2018-08-06T01:21:45.413Z,17.66
2018-08-06T01:22:50.096Z,17.63
2018-08-06T01:23:54.634Z,17.63
2018-08-06T01:24:59.192Z,17.68
2018-08-06T01:26:04.062Z,17.73
2018-08-06T01:27:08.615Z,17.73
2018-08-06T01:28:13.181Z,17.78
2018-08-06T01:29:17.725Z,17.78
2018-08-06T01:30:22.273Z,17.82
2018-08-06T01:31:26.817Z,17.74
2018-08-06T01:32:31.671Z,17.78
2018-08-06T01:33:36.215Z,17.85
2018-08-06T01:34:47.022Z,17.92
2018-08-06T01:35:51.591Z,18.02
2018-08-06T01:36:56.935Z,18.07
2018-08-06T01:38:01.517Z,18.08
2018-08-06T01:39:08.741Z,18.08
2018-08-06T01:40:14.440Z,18.09
2018-08-06T01:41:19.061Z,18.04
2018-08-06T01:42:23.612Z,18.00
2018-08-06T01:43:28.165Z,17.98
2018-08-06T01:44:32.722Z,17.95
2018-08-06T01:45:37.609Z,17.92
2018-08-06T01:46:42.190Z,17.89
2018-08-06T01:47:46.922Z,17.94
2018-08-06T01:48:51.444Z,18.01
2018-08-06T01:49:55.992Z,17.94
2018-08-06T01:51:00.505Z,17.94
2018-08-06T01:52:05.387Z,17.74
2018-08-06T01:53:10.060Z,17.39
2018-08-06T01:54:14.706Z,17.19
2018-08-06T01:55:19.420Z,17.08
2018-08-06T01:56:24.067Z,17.13
2018-08-06T01:57:28.765Z,17.25
2018-08-06T01:58:33.591Z,17.36
2018-08-06T01:59:38.175Z,17.46
2018-08-06T02:00:42.757Z,17.55
2018-08-06T02:01:47.320Z,17.61
2018-08-06T02:02:52.019Z,17.66
2018-08-06T02:03:59.764Z,17.69
2018-08-06T02:05:04.841Z,17.61
2018-08-06T02:06:09.532Z,17.58
2018-08-06T02:07:14.222Z,17.62
2018-08-06T02:08:19.842Z,17.53
2018-08-06T02:09:24.600Z,17.45
2018-08-06T02:10:29.310Z,17.36
2018-08-06T02:11:34.324Z,17.29
2018-08-06T02:12:39.099Z,17.34
2018-08-06T02:13:43.845Z,17.39
2018-08-06T02:14:48.567Z,17.44
2018-08-06T02:15:53.162Z,17.51
2018-08-06T02:16:57.771Z,17.58
2018-08-06T02:18:02.653Z,17.64
2018-08-06T02:19:08.212Z,17.69
2018-08-06T02:20:13.501Z,17.73
2018-08-06T02:21:18.087Z,17.74
2018-08-06T02:22:22.652Z,17.63
2018-08-06T02:23:27.257Z,17.58
2018-08-06T02:24:32.119Z,17.41
2018-08-06T02:25:38.015Z,17.15
2018-08-06T02:26:42.618Z,17.01
2018-08-06T02:27:47.211Z,16.89
2018-08-06T02:28:51.864Z,16.94
2018-08-06T02:29:56.394Z,16.99
2018-08-06T02:31:01.006Z,17.04
2018-08-06T02:32:05.577Z,17.02
2018-08-06T02:33:10.133Z,17.05
2018-08-06T02:34:14.684Z,17.13
2018-08-06T02:35:19.225Z,17.19
2018-08-06T02:36:31.616Z,17.28
2018-08-06T02:37:36.261Z,17.34
2018-08-06T02:38:40.903Z,17.33
2018-08-06T02:39:45.583Z,17.38
2018-08-06T02:40:50.280Z,17.34
2018-08-06T02:41:54.943Z,17.19
2018-08-06T02:42:59.936Z,17.01
2018-08-06T02:44:04.642Z,16.87
2018-08-06T02:45:10.105Z,16.74
2018-08-06T02:46:14.781Z,16.64
2018-08-06T02:47:19.463Z,16.64
2018-08-06T02:48:24.185Z,16.70
2018-08-06T02:49:29.137Z,16.80
2018-08-06T02:50:33.841Z,16.93
2018-08-06T02:51:38.533Z,16.92
2018-08-06T02:52:44.088Z,16.84
2018-08-06T02:53:48.761Z,16.70
2018-08-06T02:54:53.641Z,16.54
2018-08-06T02:55:58.584Z,16.39
2018-08-06T02:57:04.297Z,16.28
2018-08-06T02:58:09.020Z,16.35
2018-08-06T02:59:13.670Z,16.43
2018-08-06T03:00:19.036Z,16.50
2018-08-06T03:01:23.729Z,16.46
2018-08-06T03:02:28.753Z,16.35
2018-08-06T03:03:33.401Z,16.16
2018-08-06T03:04:38.058Z,16.02
2018-08-06T03:05:42.998Z,15.98
2018-08-06T03:06:47.669Z,16.07
2018-08-06T03:07:52.939Z,16.22
2018-08-06T03:08:57.894Z,16.35
2018-08-06T03:10:02.622Z,16.48
2018-08-06T03:11:07.299Z,16.46
2018-08-06T03:12:12.038Z,16.31
2018-08-06T03:13:16.691Z,16.07
2018-08-06T03:14:21.341Z,15.89
2018-08-06T03:15:26.305Z,15.66
2018-08-06T03:16:30.953Z,15.52
2018-08-06T03:17:35.638Z,15.57
2018-08-06T03:18:40.387Z,15.69
2018-08-06T03:19:45.114Z,15.77
2018-08-06T03:20:49.814Z,15.90
2018-08-06T03:21:54.764Z,16.05
2018-08-06T03:22:59.530Z,16.19
2018-08-06T03:24:04.229Z,16.29
2018-08-06T03:25:10.564Z,16.29
2018-08-06T03:26:15.252Z,16.24
2018-08-06T03:27:19.890Z,16.21
2018-08-06T03:28:25.106Z,16.21
2018-08-06T03:29:29.867Z,16.32
2018-08-06T03:30:34.545Z,16.41
2018-08-06T03:31:39.218Z,16.51
2018-08-06T03:32:44.860Z,16.54
2018-08-06T03:33:49.530Z,16.54
2018-08-06T03:34:55.512Z,16.50
2018-08-06T03:50:29.710Z,16.32
2018-08-06T03:51:34.262Z,16.32
2018-08-06T03:52:38.870Z,16.39
2018-08-06T03:53:43.444Z,16.38
2018-08-06T03:54:47.966Z,16.36
2018-08-06T03:55:53.446Z,16.32
2018-08-06T03:56:58.369Z,16.35
2018-08-06T03:58:02.957Z,16.46
2018-08-06T03:59:07.521Z,16.31
2018-08-06T04:00:14.443Z,16.29
2018-08-06T04:01:19.166Z,16.27
2018-08-06T04:02:24.325Z,16.27
2018-08-06T04:03:28.991Z,16.29
2018-08-06T04:04:33.648Z,16.14
2018-08-06T04:05:38.351Z,16.15
2018-08-06T04:06:43.001Z,16.20
2018-08-06T04:07:47.707Z,16.21
2018-08-06T04:08:52.678Z,16.17
2018-08-06T04:09:57.333Z,16.14
2018-08-06T04:11:01.993Z,16.05
2018-08-06T04:12:06.688Z,16.04
2018-08-06T04:13:11.422Z,16.08
2018-08-06T04:14:16.146Z,16.09
2018-08-06T04:15:21.085Z,16.03
2018-08-06T04:16:29.869Z,15.91
2018-08-06T04:17:34.545Z,15.86
2018-08-06T04:18:39.220Z,15.86
2018-08-06T04:19:43.928Z,15.83
2018-08-06T04:20:48.602Z,15.88
2018-08-06T04:21:53.556Z,15.93
2018-08-06T04:22:58.208Z,15.99
2018-08-06T04:24:02.972Z,16.09
2018-08-06T04:25:07.988Z,16.09
2018-08-06T04:26:12.650Z,15.99
2018-08-06T04:27:17.625Z,15.82
2018-08-06T04:28:22.308Z,15.60
2018-08-06T04:29:26.990Z,15.60
2018-08-06T04:30:31.827Z,15.49
2018-08-06T04:31:37.130Z,15.44
2018-08-06T04:32:41.999Z,15.44
2018-08-06T04:33:47.028Z,15.56
2018-08-06T04:34:51.712Z,15.74
2018-08-06T04:35:56.383Z,15.85
2018-08-06T04:37:01.059Z,15.84
2018-08-06T04:38:05.812Z,15.93
2018-08-06T04:39:10.759Z,16.06
2018-08-06T04:40:15.477Z,16.16
2018-08-06T04:41:20.274Z,16.15
2018-08-06T04:42:24.998Z,16.13
2018-08-06T04:43:29.699Z,16.20
2018-08-06T04:44:34.371Z,16.28
2018-08-06T04:45:39.352Z,16.36
2018-08-06T04:46:44.032Z,16.42
2018-08-06T04:47:48.761Z,16.48
2018-08-06T04:48:53.565Z,16.54
2018-08-06T04:49:58.259Z,16.66
2018-08-06T04:51:03.006Z,16.72
2018-08-06T04:52:08.004Z,16.75
2018-08-06T04:53:12.678Z,16.70
2018-08-06T04:54:17.391Z,16.86
2018-08-06T04:55:23.511Z,17.03
2018-08-06T04:56:28.186Z,17.09
2018-08-06T04:57:34.251Z,17.10
2018-08-06T04:58:39.255Z,17.24
2018-08-06T04:59:45.453Z,17.27
2018-08-06T05:00:54.422Z,17.30
2018-08-06T05:02:00.354Z,17.43
2018-08-06T05:03:08.343Z,17.51
2018-08-06T05:04:14.498Z,17.38
2018-08-06T05:05:22.809Z,17.44
2018-08-06T05:06:27.967Z,17.52
2018-08-06T05:07:33.478Z,17.37
2018-08-06T05:08:39.435Z,17.22
2018-08-06T05:09:45.232Z,17.22
2018-08-06T05:10:50.422Z,17.27
2018-08-06T05:11:59.687Z,17.07
2018-08-06T05:13:06.064Z,16.91
2018-08-06T05:14:10.761Z,16.88
2018-08-06T05:15:15.436Z,16.87
2018-08-06T05:16:20.525Z,16.89
2018-08-06T05:17:25.504Z,16.84
2018-08-06T05:18:30.322Z,16.79
2018-08-06T05:19:35.152Z,16.85
2018-08-06T05:20:39.816Z,16.90
2018-08-06T05:21:44.525Z,16.97
2018-08-06T05:22:49.186Z,16.94
2018-08-06T05:23:55.971Z,16.98
2018-08-06T05:25:00.650Z,17.05
2018-08-06T05:26:05.341Z,17.11
2018-08-06T05:27:10.069Z,17.08
2018-08-06T05:28:14.771Z,17.05
2018-08-06T05:29:20.405Z,16.99
2018-08-06T05:30:25.544Z,17.09
2018-08-06T05:31:30.286Z,17.17
2018-08-06T05:32:35.005Z,17.29
2018-08-06T05:33:39.708Z,17.38
2018-08-06T05:34:45.358Z,17.39
2018-08-06T05:35:50.051Z,17.26
2018-08-06T05:36:55.316Z,17.24
2018-08-06T05:38:00.059Z,17.25
2018-08-06T05:39:05.029Z,17.18
2018-08-06T05:40:09.972Z,17.06
2018-08-06T05:41:14.705Z,16.94
2018-08-06T05:42:19.590Z,17.02
2018-08-06T05:43:24.859Z,17.16
2018-08-06T05:44:30.380Z,17.29
2018-08-06T05:45:35.139Z,17.30
2018-08-06T05:46:41.330Z,17.37
2018-08-06T05:47:46.026Z,17.29
2018-08-06T05:48:50.849Z,17.12
2018-08-06T05:49:55.904Z,17.03
2018-08-06T05:51:01.224Z,16.99
2018-08-06T05:52:08.074Z,17.04
2018-08-06T05:53:12.784Z,17.14
2018-08-06T05:54:17.894Z,17.31
2018-08-06T05:55:23.556Z,17.36
2018-08-06T05:56:28.830Z,17.30
2018-08-06T05:57:33.510Z,17.34
2018-08-06T05:58:38.380Z,17.21
2018-08-06T05:59:43.065Z,17.13
2018-08-06T06:00:47.737Z,17.15
2018-08-06T06:01:53.006Z,17.21
2018-08-06T06:02:58.100Z,17.28
2018-08-06T06:04:02.797Z,17.37
2018-08-06T06:05:07.533Z,17.50
2018-08-06T06:06:12.264Z,17.69
2018-08-06T06:07:17.004Z,17.65
2018-08-06T06:08:22.321Z,17.64
2018-08-06T06:09:27.345Z,17.78
2018-08-06T06:10:32.064Z,17.84
2018-08-06T06:11:36.838Z,17.92
2018-08-06T06:12:41.511Z,18.01
2018-08-06T06:13:46.171Z,18.16
2018-08-06T06:14:50.899Z,18.33
2018-08-06T06:15:55.852Z,18.48
2018-08-06T06:17:03.497Z,18.65
2018-08-06T06:18:08.242Z,18.76
2018-08-06T06:19:14.024Z,18.91
2018-08-06T06:20:18.738Z,19.06
2018-08-06T06:21:24.062Z,19.10
2018-08-06T06:22:30.590Z,19.14
2018-08-06T06:23:36.115Z,19.20
2018-08-06T06:24:40.809Z,19.20
2018-08-06T06:25:45.549Z,19.24
2018-08-06T06:26:57.402Z,19.26
2018-08-06T06:28:04.047Z,19.23
2018-08-06T06:29:08.690Z,19.25
2018-08-06T06:30:14.818Z,19.37
2018-08-06T06:31:21.403Z,19.33
2018-08-06T06:32:26.188Z,19.43
2018-08-06T06:33:31.701Z,19.50
2018-08-06T06:34:36.501Z,19.61
2018-08-06T06:35:41.223Z,19.74
2018-08-06T06:36:45.914Z,19.82
2018-08-06T06:37:51.546Z,19.81
2018-08-06T06:38:57.310Z,19.84
2018-08-06T06:40:02.434Z,19.82
2018-08-06T06:41:08.335Z,19.84
2018-08-06T06:42:13.278Z,19.92
2018-08-06T06:43:18.073Z,20.00
2018-08-06T06:44:22.659Z,20.01
2018-08-06T06:45:27.291Z,20.03
2018-08-06T06:46:32.267Z,20.11
2018-08-06T06:47:37.632Z,20.25
2018-08-06T06:48:42.307Z,20.42
2018-08-06T06:49:47.282Z,20.54
2018-08-06T06:50:51.987Z,20.60
2018-08-06T06:51:56.574Z,20.64
2018-08-06T06:53:02.249Z,20.69
2018-08-06T06:54:07.001Z,20.81
2018-08-06T06:55:14.730Z,21.04
2018-08-06T06:56:19.401Z,20.95
2018-08-06T06:57:25.488Z,20.94
2018-08-06T06:58:30.260Z,21.00
2018-08-06T06:59:34.970Z,20.94
2018-08-06T07:00:40.316Z,21.06
2018-08-06T07:01:44.979Z,21.22
2018-08-06T07:02:49.711Z,21.26
2018-08-06T07:03:54.411Z,21.27
2018-08-06T07:04:59.167Z,21.21
2018-08-06T07:06:04.203Z,21.16
2018-08-06T07:07:08.939Z,21.17
2018-08-06T07:08:14.174Z,21.29
2018-08-06T07:09:19.685Z,21.26
2018-08-06T07:10:24.377Z,21.28
2018-08-06T07:11:29.142Z,21.45
2018-08-06T07:12:35.969Z,21.54
2018-08-06T07:13:40.677Z,21.69
2018-08-06T07:14:45.790Z,21.73
2018-08-06T07:15:51.258Z,21.78
2018-08-06T07:16:56.043Z,21.71
2018-08-06T07:18:00.770Z,21.67
2018-08-06T07:19:06.976Z,21.61
2018-08-06T07:20:12.830Z,21.64
2018-08-06T07:21:18.125Z,21.73
2018-08-06T07:22:22.826Z,21.78
2018-08-06T07:23:27.533Z,21.75
2018-08-06T07:24:32.250Z,21.76
2018-08-06T07:25:38.350Z,21.86
2018-08-06T07:26:43.044Z,21.74
2018-08-06T07:27:48.669Z,21.81
2018-08-06T07:28:56.201Z,21.78
2018-08-06T07:30:00.782Z,21.95
2018-08-06T07:31:05.599Z,22.12
2018-08-06T07:32:11.284Z,22.19
2018-08-06T07:33:15.945Z,22.22
2018-08-06T07:34:23.444Z,22.21
2018-08-06T07:35:28.010Z,22.10
2018-08-06T07:36:32.792Z,22.27
2018-08-06T07:37:38.412Z,22.22
2018-08-06T07:38:43.270Z,22.21
2018-08-06T07:39:49.495Z,22.07
2018-08-06T07:40:54.044Z,22.15
2018-08-06T07:41:58.578Z,22.09
2018-08-06T07:43:04.779Z,22.26
2018-08-06T07:44:11.497Z,22.44
2018-08-06T07:45:20.181Z,22.38
2018-08-06T07:46:26.783Z,22.28
2018-08-06T07:47:32.464Z,22.26
2018-08-06T07:48:39.786Z,22.28
2018-08-06T07:49:45.384Z,22.34
2018-08-06T07:50:51.670Z,22.32
2018-08-06T07:51:57.019Z,22.37
2018-08-06T07:53:04.090Z,22.39
2018-08-06T07:54:09.838Z,22.57
2018-08-06T07:55:14.641Z,22.81
2018-08-06T07:56:19.427Z,22.77
2018-08-06T07:57:24.169Z,22.65
2018-08-06T07:58:29.913Z,22.60
2018-08-06T07:59:35.345Z,22.73
2018-08-06T08:00:40.085Z,22.72
2018-08-06T08:01:44.774Z,22.67
2018-08-06T08:02:50.751Z,22.84
2018-08-06T08:03:55.533Z,23.01
2018-08-06T08:05:00.977Z,23.11
2018-08-06T08:06:05.665Z,23.11
2018-08-06T08:07:10.268Z,23.05
2018-08-06T08:08:15.853Z,23.14
2018-08-06T08:09:21.175Z,22.98
2018-08-06T08:10:25.767Z,22.96
2018-08-06T08:11:30.808Z,22.96
2018-08-06T08:12:35.417Z,22.93
2018-08-06T08:13:40.148Z,22.91
2018-08-06T08:14:45.745Z,23.03
2018-08-06T08:15:50.342Z,23.17
2018-08-06T08:16:54.958Z,23.21
2018-08-06T08:18:00.775Z,23.29
2018-08-06T08:19:08.984Z,23.34
2018-08-06T08:20:14.739Z,23.48
2018-08-06T08:21:19.390Z,23.49
2018-08-06T08:22:24.157Z,23.39
2018-08-06T08:23:28.874Z,23.42
2018-08-06T08:24:34.812Z,23.46
2018-08-06T08:25:39.459Z,23.58
2018-08-06T08:26:45.256Z,23.51
2018-08-06T08:27:49.975Z,23.68
2018-08-06T08:28:55.819Z,23.73
2018-08-06T08:30:02.143Z,23.81
2018-08-06T08:31:07.168Z,23.80
2018-08-06T08:32:11.795Z,23.91
2018-08-06T08:33:18.252Z,23.96
2018-08-06T08:34:23.956Z,23.88
2018-08-06T08:35:29.844Z,23.93
2018-08-06T08:36:37.286Z,24.11
2018-08-06T08:37:44.675Z,24.43
2018-08-06T08:38:50.174Z,24.71
2018-08-06T08:39:55.866Z,24.57
2018-08-06T08:41:00.594Z,24.57
2018-08-06T08:42:05.297Z,24.62
2018-08-06T08:43:11.675Z,24.62
2018-08-06T08:44:16.880Z,24.61
2018-08-06T08:45:21.598Z,24.74
2018-08-06T08:46:27.277Z,24.94
2018-08-06T08:47:32.929Z,24.94
2018-08-06T08:48:38.257Z,25.20
2018-08-06T08:49:44.376Z,25.15
2018-08-06T08:50:49.712Z,24.85
2018-08-06T08:51:57.396Z,24.84
2018-08-06T08:53:02.782Z,24.84
2018-08-06T08:54:08.203Z,25.04
2018-08-06T08:55:13.659Z,25.09
2018-08-06T08:56:18.496Z,24.91
2018-08-06T08:57:23.058Z,24.87
2018-08-06T08:58:27.707Z,25.04
2018-08-06T08:59:33.315Z,25.21
2018-08-06T09:00:38.833Z,25.42
2018-08-06T09:01:43.465Z,25.07
2018-08-06T09:02:50.211Z,25.08
2018-08-06T09:03:54.770Z,25.22
2018-08-06T09:05:07.004Z,25.41
2018-08-06T09:06:11.677Z,25.28
2018-08-06T09:07:17.467Z,25.08
2018-08-06T09:08:22.367Z,25.10
2018-08-06T09:09:27.648Z,25.18
2018-08-06T09:10:38.095Z,25.16
2018-08-06T09:11:43.232Z,25.15
2018-08-06T09:12:49.648Z,25.18
2018-08-06T09:13:57.656Z,25.19
2018-08-06T09:15:04.181Z,25.17
2018-08-06T09:16:10.372Z,25.16
2018-08-06T09:17:16.802Z,25.06
2018-08-06T09:18:22.317Z,24.92
2018-08-06T09:19:28.699Z,25.16
2018-08-06T09:20:33.370Z,25.36
2018-08-06T09:21:38.000Z,25.33
2018-08-06T09:22:44.358Z,25.45
2018-08-06T09:23:50.000Z,25.39
2018-08-06T09:24:54.788Z,25.40
2018-08-06T09:25:59.430Z,25.47
2018-08-06T09:27:04.149Z,25.69
2018-08-06T09:28:09.610Z,25.89
2018-08-06T09:29:15.064Z,26.06
2018-08-06T09:30:22.440Z,26.11
2018-08-06T09:31:27.720Z,26.26
2018-08-06T09:32:32.303Z,26.18
2018-08-06T09:33:36.892Z,26.16
2018-08-06T09:34:41.823Z,26.03
2018-08-06T09:35:46.430Z,26.09
2018-08-06T09:36:52.289Z,-144.44
2018-08-06T09:37:57.889Z,-144.44
2018-08-06T09:39:05.293Z,-144.44
2018-08-06T09:40:12.630Z,25.84
2018-08-06T09:41:18.243Z,25.96
2018-08-06T09:42:25.461Z,25.86
2018-08-06T09:43:33.600Z,25.79
2018-08-06T09:44:38.248Z,26.00
2018-08-06T09:45:43.532Z,26.29
2018-08-06T09:46:48.721Z,26.39
2018-08-06T09:47:55.376Z,26.31
2018-08-06T10:06:04.562Z,27.10
2018-08-06T10:07:12.189Z,27.06
2018-08-06T10:08:18.062Z,27.08
2018-08-06T10:09:23.131Z,27.24
2018-08-06T10:10:27.776Z,27.31
2018-08-06T10:11:33.311Z,27.36
2018-08-06T10:12:39.277Z,27.40
2018-08-06T10:13:43.867Z,27.48
2018-08-06T10:14:48.557Z,27.63
2018-08-06T10:15:54.148Z,27.42
2018-08-06T10:16:59.536Z,-144.44
2018-08-06T10:18:07.555Z,27.58
2018-08-06T10:19:12.316Z,27.56
2018-08-06T10:20:18.208Z,27.62
2018-08-06T10:21:22.916Z,-144.44
2018-08-06T10:22:27.720Z,-144.44
2018-08-06T10:23:37.464Z,-144.44
2018-08-06T10:24:43.702Z,27.85
2018-08-06T10:25:49.081Z,27.32
2018-08-06T10:26:53.628Z,27.21
2018-08-06T10:27:58.211Z,27.39
2018-08-06T10:29:02.860Z,27.55
2018-08-06T10:30:09.383Z,27.31
2018-08-06T10:31:14.254Z,27.54
2018-08-06T10:32:20.411Z,27.79
2018-08-06T10:33:27.481Z,27.81
2018-08-06T10:34:32.316Z,27.88
2018-08-06T10:35:37.431Z,28.00
2018-08-06T10:36:42.828Z,28.12
2018-08-06T10:37:47.863Z,28.22
2018-08-06T10:38:52.573Z,28.40
2018-08-06T10:39:57.553Z,28.25
2018-08-06T10:41:03.063Z,28.24
2018-08-06T10:42:07.688Z,28.32
2018-08-06T10:43:13.987Z,28.12
2018-08-06T10:44:20.390Z,28.11
2018-08-06T10:45:26.276Z,28.21
2018-08-06T10:46:32.196Z,28.30
2018-08-06T10:47:37.318Z,28.58
2018-08-06T10:48:41.992Z,28.59
2018-08-06T10:49:47.796Z,28.65
2018-08-06T10:50:54.141Z,28.81
2018-08-06T10:51:58.727Z,28.78
2018-08-06T10:53:03.337Z,28.63
2018-08-06T10:54:08.061Z,28.63
2018-08-06T10:55:14.378Z,28.62
2018-08-06T10:56:20.406Z,28.65
2018-08-06T10:57:26.671Z,28.71
2018-08-06T10:58:31.293Z,28.36
2018-08-06T10:59:36.973Z,27.94
2018-08-06T11:00:41.548Z,27.85
2018-08-06T11:01:47.673Z,27.92
2018-08-06T11:02:54.366Z,27.94
2018-08-06T11:04:00.666Z,27.83
2018-08-06T11:05:07.314Z,27.82
2018-08-06T11:06:12.697Z,27.78
2018-08-06T11:07:18.118Z,27.58
2018-08-06T11:08:23.573Z,27.59
2018-08-06T11:09:28.490Z,27.85
2018-08-06T11:10:33.099Z,28.19
2018-08-06T11:11:37.705Z,28.29
2018-08-06T11:12:42.316Z,28.46
2018-08-06T11:13:47.246Z,28.71
2018-08-06T11:14:52.644Z,28.67
2018-08-06T11:15:59.351Z,28.52
2018-08-06T11:17:05.478Z,28.47
2018-08-06T11:18:10.058Z,28.30
2018-08-06T11:19:15.316Z,28.31
2018-08-06T11:20:21.405Z,28.60
2018-08-06T11:21:26.553Z,28.63
2018-08-06T11:22:32.095Z,28.91
2018-08-06T11:23:38.144Z,29.42
2018-08-06T11:24:43.238Z,29.63
2018-08-06T11:25:48.188Z,29.39
2018-08-06T11:26:53.885Z,29.19
2018-08-06T11:27:58.491Z,29.21
2018-08-06T11:29:03.077Z,29.10
2018-08-06T11:30:13.225Z,29.16
2018-08-06T11:31:20.005Z,29.24
2018-08-06T11:32:27.104Z,29.21
2018-08-06T11:33:31.677Z,29.45
2018-08-06T11:34:36.290Z,29.56
2018-08-06T11:35:42.425Z,29.50
2018-08-06T11:36:47.011Z,29.37
2018-08-06T11:37:52.259Z,29.47
2018-08-06T11:38:57.186Z,29.68
2018-08-06T11:40:02.377Z,29.87
2018-08-06T11:41:08.278Z,29.97
2018-08-06T11:42:12.878Z,29.79
2018-08-06T11:43:18.034Z,29.87
2018-08-06T11:44:24.921Z,30.12
2018-08-06T11:45:31.177Z,30.35
2018-08-06T11:46:36.723Z,30.70
2018-08-06T11:47:42.307Z,30.83
2018-08-06T11:48:47.574Z,31.17
2018-08-06T11:49:53.637Z,31.30
2018-08-06T11:51:00.372Z,31.46
2018-08-06T11:52:06.347Z,31.67
2018-08-06T11:53:11.756Z,32.54
2018-08-06T11:54:16.373Z,32.84
2018-08-06T11:55:22.020Z,32.63
2018-08-06T11:56:28.392Z,32.24
2018-08-06T11:57:34.696Z,32.00
2018-08-06T11:58:40.866Z,31.74
2018-08-06T11:59:46.368Z,31.23
2018-08-06T12:00:51.840Z,31.28
2018-08-06T12:01:59.081Z,31.30
2018-08-06T12:03:09.347Z,31.40
2018-08-06T12:04:15.286Z,31.55
2018-08-06T12:05:21.863Z,32.24
2018-08-06T12:06:27.322Z,32.51
2018-08-06T12:07:32.420Z,32.36
2018-08-06T12:08:38.344Z,31.79
2018-08-06T12:09:44.439Z,31.29
2018-08-06T12:10:50.000Z,31.18
2018-08-06T12:11:55.528Z,31.32
2018-08-06T12:13:00.286Z,31.06
2018-08-06T12:14:06.795Z,31.20
2018-08-06T12:15:12.540Z,31.31
2018-08-06T12:16:19.249Z,31.09
2018-08-06T12:17:25.361Z,30.87
2018-08-06T12:18:31.424Z,30.88
2018-08-06T12:19:37.407Z,31.42
2018-08-06T12:20:43.217Z,32.27
2018-08-06T12:21:49.318Z,32.47
2018-08-06T12:22:56.518Z,31.97
2018-08-06T12:24:02.879Z,31.60
2018-08-06T12:25:10.458Z,31.52
2018-08-06T12:26:16.242Z,31.45
2018-08-06T12:27:21.475Z,31.62
2018-08-06T12:28:27.215Z,31.16
2018-08-06T12:29:35.853Z,31.25
2018-08-06T12:30:40.891Z,31.57
2018-08-06T12:31:47.049Z,31.79
2018-08-06T12:32:52.611Z,31.65
2018-08-06T12:33:58.286Z,31.22
2018-08-06T12:35:03.566Z,31.35
2018-08-06T12:36:09.285Z,31.40
2018-08-06T12:37:14.050Z,31.61
2018-08-06T12:39:30.247Z,31.80
2018-08-06T12:40:35.801Z,31.99
2018-08-06T12:41:40.728Z,32.41
2018-08-06T12:42:46.583Z,32.77
2018-08-06T12:43:51.392Z,32.59
2018-08-06T12:44:57.826Z,32.88
2018-08-06T12:46:02.746Z,32.90
2018-08-06T12:47:07.409Z,33.12
2018-08-06T12:48:12.809Z,33.46
2018-08-06T12:49:19.047Z,33.23
2018-08-06T12:50:25.120Z,33.38
2018-08-06T12:51:32.591Z,32.87
2018-08-06T12:52:38.814Z,32.76
2018-08-06T12:53:44.533Z,32.48
2018-08-06T12:54:50.055Z,32.23
2018-08-06T12:55:54.633Z,32.42
2018-08-06T12:56:59.281Z,32.78
2018-08-06T12:58:04.797Z,33.56
2018-08-06T12:59:11.343Z,33.70
2018-08-06T13:00:23.094Z,33.03
2018-08-06T13:01:27.866Z,33.62
2018-08-06T13:02:32.506Z,34.59
2018-08-06T13:03:37.239Z,34.85
2018-08-06T13:04:42.007Z,35.47
2018-08-06T13:05:47.692Z,36.09
2018-08-06T13:06:53.203Z,34.92
2018-08-06T13:07:57.784Z,33.35
2018-08-06T13:09:05.043Z,33.09
2018-08-06T13:10:11.506Z,33.31
2018-08-06T13:11:16.498Z,33.53
2018-08-06T13:12:23.065Z,33.18
2018-08-06T13:13:28.146Z,32.85
2018-08-06T13:14:34.196Z,32.97
2018-08-06T13:15:38.988Z,33.00
2018-08-06T13:16:45.515Z,33.13
2018-08-06T13:17:51.353Z,33.50
2018-08-06T13:18:56.809Z,33.30
2018-08-06T13:20:02.665Z,33.25
2018-08-06T13:21:07.620Z,33.59
2018-08-06T13:22:17.640Z,33.42
2018-08-06T13:23:25.328Z,33.57
2018-08-06T13:24:29.997Z,33.29
2018-08-06T13:25:37.993Z,33.29
2018-08-06T13:26:44.563Z,33.44
2018-08-06T13:27:50.822Z,33.66
2018-08-06T13:28:56.292Z,33.17
2018-08-06T13:30:02.836Z,32.91
2018-08-06T13:31:07.719Z,32.93
2018-08-06T13:32:12.479Z,33.36
2018-08-06T13:33:19.762Z,33.34
2018-08-06T13:34:26.660Z,33.57
2018-08-06T13:35:31.254Z,33.37
2018-08-06T13:36:38.437Z,33.43
2018-08-06T13:37:43.138Z,33.57
2018-08-06T13:38:47.746Z,33.78
2018-08-06T13:39:57.116Z,33.88
2018-08-06T13:41:03.695Z,33.91
2018-08-06T13:42:12.144Z,34.56
2018-08-06T13:43:17.190Z,34.03
2018-08-06T13:44:22.846Z,33.62
2018-08-06T13:46:38.541Z,33.92
2018-08-06T13:47:43.404Z,34.69
2018-08-06T13:48:48.381Z,34.57
2018-08-06T13:49:53.629Z,33.64
2018-08-06T13:51:00.422Z,33.00
2018-08-06T13:52:05.087Z,33.63
2018-08-06T13:53:10.472Z,34.77
2018-08-06T13:54:15.173Z,35.57
2018-08-06T13:55:20.177Z,35.44
2018-08-06T13:56:24.908Z,35.07
2018-08-06T13:57:29.634Z,34.72
2018-08-06T13:58:34.230Z,34.59
2018-08-06T13:59:41.970Z,35.27
2018-08-06T14:00:46.661Z,34.91
2018-08-06T14:01:51.233Z,33.80
2018-08-06T14:02:56.204Z,33.53
2018-08-06T14:04:02.268Z,33.62
2018-08-06T14:05:07.796Z,33.96
2018-08-06T14:06:12.476Z,33.72
2018-08-06T14:07:18.252Z,33.38
2018-08-06T14:08:23.167Z,33.78
2018-08-06T14:09:27.817Z,33.92
2018-08-06T14:10:32.909Z,34.13
2018-08-06T14:11:37.591Z,33.83
2018-08-06T14:12:42.829Z,34.13
2018-08-06T14:13:48.215Z,35.08
2018-08-06T14:14:54.368Z,36.03
2018-08-06T14:15:59.172Z,35.79
2018-08-06T14:17:04.107Z,35.98
2018-08-06T14:18:12.346Z,35.56
2018-08-06T14:19:19.593Z,34.84
2018-08-06T14:20:28.106Z,35.11
2018-08-06T14:21:35.611Z,34.23
2018-08-06T14:22:41.532Z,34.98
2018-08-06T14:23:47.764Z,34.69
2018-08-06T14:24:54.568Z,34.39
2018-08-06T14:26:01.622Z,34.68
2018-08-06T14:27:08.369Z,35.54
2018-08-06T14:28:14.210Z,36.60
2018-08-06T14:29:19.281Z,37.29
2018-08-06T14:30:24.013Z,36.21
2018-08-06T14:31:28.961Z,34.91
2018-08-06T14:51:27.604Z,35.41
2018-08-06T14:52:33.839Z,35.65
2018-08-06T14:53:40.877Z,35.89
2018-08-06T14:54:46.402Z,36.25